Time;durP1;ratioP1;P1;durP2;ratioP2;P2;SDS_P1;SDS_P2;PMS_P1;PMS_P2;Temp;Humidity;BMP_temperature;BMP_pressure;BME280_temperature;BME280_humidity;BME280_pressure;Samples;Min_cycle;Max_cycle;Signal;HPM_P1;HPM_P2
2021/11/28 00:00:53;;;;;;;30.87;16.80;;;1.10;99.90;;;;;;5053267;28;20409;-68
2021/11/28 00:03:21;;;;;;;36.33;17.50;;;1.10;99.90;;;;;;5053233;28;20041;-68
2021/11/28 00:05:55;;;;;;;30.63;15.53;;;1.10;99.90;;;;;;5052143;28;20048;-68
2021/11/28 00:08:40;;;;;;;34.83;16.77;;;1.10;99.90;;;;;;5053022;28;20121;-68
2021/11/28 00:11:18;;;;;;;34.77;15.93;;;1.00;99.90;;;;;;5052908;28;20098;-68
2021/11/28 00:13:50;;;;;;;32.33;15.77;;;0.90;99.90;;;;;;5053161;28;20106;-68
2021/11/28 00:16:18;;;;;;;33.80;16.33;;;0.90;99.90;;;;;;5052398;28;20368;-68
2021/11/28 00:18:46;;;;;;;34.27;16.37;;;0.80;99.90;;;;;;5052834;28;20045;-68
2021/11/28 00:21:13;;;;;;;36.43;17.03;;;0.80;99.90;;;;;;5052715;28;20139;-68
2021/11/28 00:23:41;;;;;;;32.63;16.10;;;0.80;99.90;;;;;;5052633;28;20059;-68
2021/11/28 00:26:08;;;;;;;35.43;16.47;;;0.70;99.90;;;;;;5051668;28;20053;-68
2021/11/28 00:28:35;;;;;;;32.87;15.40;;;0.60;99.90;;;;;;5052257;28;20057;-68
2021/11/28 00:31:04;;;;;;;35.60;16.27;;;0.70;99.90;;;;;;5052636;28;20570;-68
2021/11/28 00:33:31;;;;;;;34.67;17.20;;;0.60;99.90;;;;;;5051074;28;20095;-68
2021/11/28 00:35:58;;;;;;;35.87;16.77;;;0.70;99.90;;;;;;5051763;28;20470;-68
2021/11/28 00:38:25;;;;;;;34.83;16.77;;;0.70;99.90;;;;;;5052443;28;20053;-68
2021/11/28 00:40:53;;;;;;;39.37;17.73;;;0.70;99.90;;;;;;5052276;28;20052;-68
2021/11/28 00:43:20;;;;;;;37.47;17.53;;;0.70;99.90;;;;;;5052106;28;20501;-68
2021/11/28 00:45:47;;;;;;;35.97;18.00;;;0.70;99.90;;;;;;5051561;28;20500;-68
2021/11/28 00:48:16;;;;;;;33.17;17.17;;;0.80;99.90;;;;;;5052429;28;20567;-68
2021/11/28 00:50:47;;;;;;;37.50;17.87;;;0.80;99.90;;;;;;5052287;28;20496;-68
2021/11/28 00:53:19;;;;;;;35.83;16.73;;;0.70;99.90;;;;;;5052272;28;20053;-68
2021/11/28 00:55:46;;;;;;;38.77;16.87;;;0.70;99.90;;;;;;5051157;28;20065;-68
2021/11/28 00:58:13;;;;;;;40.33;18.33;;;0.70;99.90;;;;;;5052207;28;20531;-68
2021/11/28 01:00:42;;;;;;;38.37;18.93;;;0.70;99.90;;;;;;5052111;28;20060;-68
2021/11/28 01:03:10;;;;;;;37.77;18.27;;;0.70;99.90;;;;;;5052305;28;20052;-68
2021/11/28 01:05:38;;;;;;;38.30;17.73;;;0.80;99.90;;;;;;5051215;28;20103;-68
2021/11/28 01:08:06;;;;;;;40.57;18.83;;;0.80;99.90;;;;;;5051864;28;20048;-68
2021/11/28 01:10:33;;;;;;;37.47;17.10;;;0.80;99.90;;;;;;5052100;28;20051;-68
2021/11/28 01:13:00;;;;;;;36.90;16.40;;;0.90;99.90;;;;;;5051616;28;20048;-68
2021/11/28 01:15:27;;;;;;;35.10;17.60;;;0.90;99.90;;;;;;5050832;28;20425;-68
2021/11/28 01:17:54;;;;;;;37.10;17.33;;;0.90;99.90;;;;;;5051875;28;20052;-68
2021/11/28 01:20:21;;;;;;;32.20;15.43;;;0.90;99.90;;;;;;5051498;28;20041;-68
2021/11/28 01:22:50;;;;;;;33.77;15.50;;;0.90;99.90;;;;;;5050961;28;20048;-68
2021/11/28 01:25:17;;;;;;;31.33;15.27;;;0.90;99.90;;;;;;5050524;28;20102;-68
2021/11/28 01:27:45;;;;;;;30.63;15.30;;;0.90;99.90;;;;;;5051636;28;20056;-68
2021/11/28 01:30:12;;;;;;;28.87;13.53;;;0.90;99.90;;;;;;5051398;28;20045;-68
2021/11/28 01:32:40;;;;;;;31.90;14.30;;;0.90;99.90;;;;;;5051186;28;20051;-68
2021/11/28 01:35:10;;;;;;;31.37;15.23;;;0.90;99.90;;;;;;5050475;28;20053;-68
2021/11/28 01:37:38;;;;;;;35.07;15.60;;;0.80;99.90;;;;;;5051172;28;20057;-68
2021/11/28 01:40:09;;;;;;;32.83;16.10;;;0.70;99.90;;;;;;5051534;28;20497;-68
2021/11/28 01:42:38;;;;;;;31.67;14.87;;;0.70;99.90;;;;;;5051609;28;20051;-68
2021/11/28 01:45:07;;;;;;;32.57;15.20;;;0.60;99.90;;;;;;5049669;28;20110;-68
2021/11/28 01:47:34;;;;;;;37.50;15.27;;;0.60;99.90;;;;;;5051075;28;20053;-68
2021/11/28 01:50:01;;;;;;;30.43;15.03;;;0.50;99.90;;;;;;5051085;28;20574;-68
2021/11/28 01:52:28;;;;;;;31.17;15.00;;;0.50;99.90;;;;;;5050921;28;20045;-68
2021/11/28 01:54:56;;;;;;;33.63;14.43;;;0.40;99.90;;;;;;5050083;28;20493;-68
2021/11/28 01:57:24;;;;;;;32.90;15.67;;;0.40;99.90;;;;;;5051206;28;20049;-68
2021/11/28 01:59:51;;;;;;;30.93;14.23;;;0.40;99.90;;;;;;5050350;28;20076;-68
2021/11/28 02:02:18;;;;;;;29.17;13.97;;;0.50;99.90;;;;;;5050820;28;20497;-68
2021/11/28 02:04:46;;;;;;;31.70;14.10;;;0.50;99.90;;;;;;5049891;28;20053;-68
2021/11/28 02:07:15;;;;;;;30.13;14.30;;;0.50;99.90;;;;;;5050818;28;20098;-68
2021/11/28 02:09:42;;;;;;;30.37;13.70;;;0.40;99.90;;;;;;5050676;28;20041;-68
2021/11/28 02:12:09;;;;;;;32.13;14.13;;;0.30;99.90;;;;;;5050303;28;20485;-68
2021/11/28 02:14:38;;;;;;;32.37;15.00;;;0.30;99.90;;;;;;5050419;28;20386;-68
2021/11/28 02:17:06;;;;;;;34.03;14.30;;;0.30;99.90;;;;;;5050141;28;20253;-68
2021/11/28 02:19:33;;;;;;;36.60;14.73;;;0.20;99.90;;;;;;5050296;28;20095;-68
2021/11/28 02:22:01;;;;;;;34.23;14.63;;;0.10;99.90;;;;;;5050559;28;20052;-68
2021/11/28 02:24:28;;;;;;;35.97;15.87;;;0.10;99.90;;;;;;5050348;28;20049;-68
2021/11/28 02:26:55;;;;;;;27.80;13.67;;;0.10;99.90;;;;;;5049653;28;20095;-68
2021/11/28 02:29:22;;;;;;;29.77;13.90;;;0.10;99.90;;;;;;5050642;28;20056;-68
2021/11/28 02:31:49;;;;;;;31.77;14.60;;;0.20;99.90;;;;;;5050367;28;20536;-68
2021/11/28 02:34:19;;;;;;;34.37;14.20;;;0.10;99.90;;;;;;5050412;28;20067;-68
2021/11/28 02:36:51;;;;;;;33.57;14.37;;;0.10;99.90;;;;;;5049151;28;20056;-68
2021/11/28 02:39:20;;;;;;;31.20;14.97;;;0.10;99.90;;;;;;5050022;28;20068;-68
2021/11/28 02:41:47;;;;;;;33.03;14.00;;;0.00;99.90;;;;;;5050229;28;20126;-68
2021/11/28 02:44:14;;;;;;;36.00;15.03;;;0.10;99.90;;;;;;5050745;28;20133;-68
2021/11/28 02:46:42;;;;;;;34.73;15.77;;;0.10;99.90;;;;;;5049058;28;20049;-68
2021/11/28 02:49:09;;;;;;;34.70;15.07;;;0.00;99.90;;;;;;5050245;28;20048;-68
2021/11/28 02:51:37;;;;;;;34.87;14.77;;;0.00;99.90;;;;;;5049852;28;20049;-68
2021/11/28 02:54:05;;;;;;;35.27;15.90;;;0.00;99.90;;;;;;5049744;28;20048;-68
2021/11/28 02:56:34;;;;;;;36.93;16.73;;;0.00;99.90;;;;;;5048955;28;20547;-68
2021/11/28 02:59:01;;;;;;;37.57;17.30;;;0.10;99.90;;;;;;5050240;28;20122;-68
2021/11/28 03:01:28;;;;;;;37.07;17.23;;;0.00;99.90;;;;;;5050056;28;20103;-68
2021/11/28 03:03:55;;;;;;;39.40;18.83;;;0.00;99.90;;;;;;5049826;28;20106;-68
2021/11/28 03:06:22;;;;;;;37.93;17.03;;;0.00;99.90;;;;;;5061483;22;20136;-70
2021/11/28 03:08:49;;;;;;;37.10;17.60;;;0.00;99.90;;;;;;5030270;28;20049;-69
2021/11/28 03:11:17;;;;;;;36.67;17.33;;;0.10;99.90;;;;;;5029470;28;20533;-69
2021/11/28 03:13:49;;;;;;;38.67;18.43;;;0.10;99.90;;;;;;5029426;28;20058;-70
2021/11/28 03:16:19;;;;;;;39.77;17.93;;;0.10;99.90;;;;;;5028769;28;20463;-69
2021/11/28 03:18:47;;;;;;;39.63;16.97;;;0.10;99.90;;;;;;5028996;28;20140;-69
2021/11/28 03:21:17;;;;;;;40.03;17.80;;;0.10;99.90;;;;;;5029304;28;20095;-69
2021/11/28 03:23:47;;;;;;;38.03;16.40;;;0.00;99.90;;;;;;5029196;28;20107;-69
2021/11/28 03:26:15;;;;;;;48.17;17.57;;;0.00;99.90;;;;;;5028368;28;20452;-69
2021/11/28 03:28:46;;;;;;;37.57;16.33;;;0.00;99.90;;;;;;5029248;28;20568;-69
2021/11/28 03:31:14;;;;;;;36.03;16.57;;;0.00;99.90;;;;;;5029219;28;20137;-69
2021/11/28 03:33:42;;;;;;;36.83;16.17;;;0.10;99.90;;;;;;5029008;28;20046;-69
2021/11/28 03:36:11;;;;;;;34.53;15.63;;;0.10;99.90;;;;;;5028629;28;20050;-69
2021/11/28 03:38:40;;;;;;;35.40;15.10;;;0.20;99.90;;;;;;5028985;28;20049;-69
2021/11/28 03:41:08;;;;;;;35.47;16.07;;;0.20;99.90;;;;;;5029797;28;20060;-69
2021/11/28 03:43:36;;;;;;;40.93;16.47;;;0.20;99.90;;;;;;5029491;28;20119;-69
2021/11/28 03:46:05;;;;;;;34.13;15.30;;;0.10;99.90;;;;;;5028380;28;20398;-69
2021/11/28 03:48:32;;;;;;;34.57;16.47;;;0.00;99.90;;;;;;5029137;28;20053;-69
2021/11/28 03:50:59;;;;;;;32.73;15.37;;;0.00;99.90;;;;;;5029027;28;20096;-69
2021/11/28 03:53:26;;;;;;;31.97;15.43;;;0.10;99.90;;;;;;5029049;28;20058;-69
2021/11/28 03:55:54;;;;;;;34.10;15.30;;;0.10;99.90;;;;;;5028431;28;20057;-69
2021/11/28 03:58:22;;;;;;;36.73;14.97;;;0.10;99.90;;;;;;5028916;28;20058;-69
2021/11/28 04:00:49;;;;;;;33.33;14.30;;;0.10;99.90;;;;;;5028867;28;20727;-69
2021/11/28 04:03:17;;;;;;;32.63;15.00;;;0.20;99.90;;;;;;5028862;28;20091;-69
2021/11/28 04:05:44;;;;;;;34.10;15.13;;;0.20;99.90;;;;;;5028226;28;20057;-69
2021/11/28 04:08:11;;;;;;;29.40;13.63;;;0.20;99.90;;;;;;5048367;28;20493;-69
2021/11/28 04:10:38;;;;;;;30.67;14.27;;;0.20;99.90;;;;;;5052507;28;20098;-69
2021/11/28 04:13:06;;;;;;;28.87;13.73;;;0.20;99.90;;;;;;5052009;28;20103;-69
2021/11/28 04:15:33;;;;;;;33.43;14.40;;;0.20;99.90;;;;;;5051940;28;20393;-69
2021/11/28 04:18:00;;;;;;;30.90;14.00;;;0.30;99.90;;;;;;5052445;28;20057;-69
2021/11/28 04:20:29;;;;;;;32.77;14.37;;;0.20;99.90;;;;;;5052355;28;20053;-69
2021/11/28 04:22:56;;;;;;;31.43;13.20;;;0.20;99.90;;;;;;5052279;28;20508;-69
2021/11/28 04:25:23;;;;;;;33.40;13.70;;;0.30;99.90;;;;;;5051657;28;20053;-69
2021/11/28 04:27:50;;;;;;;29.63;12.80;;;0.30;99.90;;;;;;5052253;28;20049;-69
2021/11/28 04:30:17;;;;;;;32.17;13.50;;;0.40;99.90;;;;;;5052367;28;20052;-69
2021/11/28 04:32:44;;;;;;;26.57;13.60;;;0.40;99.90;;;;;;5051963;28;20566;-68
2021/11/28 04:35:11;;;;;;;27.27;13.43;;;0.40;99.90;;;;;;5051387;28;20053;-69
2021/11/28 04:37:40;;;;;;;25.60;12.33;;;0.40;99.90;;;;;;5052152;28;20056;-69
2021/11/28 04:40:09;;;;;;;28.77;13.50;;;0.40;99.90;;;;;;5051775;28;20053;-69
2021/11/28 04:42:36;;;;;;;26.67;12.73;;;0.40;99.90;;;;;;5051840;28;20098;-69
2021/11/28 04:45:04;;;;;;;33.33;14.70;;;0.40;99.90;;;;;;5051367;28;20052;-69
2021/11/28 04:47:31;;;;;;;25.47;12.70;;;0.40;99.90;;;;;;5052546;28;20049;-69
2021/11/28 04:49:59;;;;;;;28.57;13.27;;;0.40;99.90;;;;;;5053288;28;20061;-69
2021/11/28 04:52:26;;;;;;;23.77;12.47;;;0.50;99.90;;;;;;5051853;28;20183;-69
2021/11/28 04:54:54;;;;;;;24.03;12.73;;;0.50;99.90;;;;;;5050878;28;20045;-69
2021/11/28 04:57:21;;;;;;;26.00;12.63;;;0.40;99.90;;;;;;5051910;28;20045;-69
2021/11/28 04:59:49;;;;;;;25.27;12.10;;;0.50;99.90;;;;;;5051565;28;20045;-68
2021/11/28 05:02:16;;;;;;;27.33;13.00;;;0.50;99.90;;;;;;5051502;28;20055;-69
2021/11/28 05:04:43;;;;;;;24.40;12.27;;;0.50;99.90;;;;;;5050936;28;20118;-69
2021/11/28 05:07:10;;;;;;;27.30;12.60;;;0.50;99.90;;;;;;5051322;28;20111;-69
2021/11/28 05:09:38;;;;;;;26.43;12.57;;;0.50;99.90;;;;;;5051255;28;20044;-69
2021/11/28 05:12:07;;;;;;;26.43;13.07;;;0.60;99.90;;;;;;5051326;28;20619;-69
2021/11/28 05:14:34;;;;;;;25.23;11.80;;;0.60;99.90;;;;;;5051213;28;20091;-69
2021/11/28 05:17:01;;;;;;;24.80;12.23;;;0.60;99.90;;;;;;5050706;28;20115;-69
2021/11/28 05:19:28;;;;;;;24.07;11.13;;;0.60;99.90;;;;;;5050287;28;20520;-69
2021/11/28 05:21:55;;;;;;;23.90;11.80;;;0.60;99.90;;;;;;5050951;28;20060;-69
2021/11/28 05:24:22;;;;;;;25.90;12.07;;;0.60;99.90;;;;;;5051270;28;20048;-69
2021/11/28 05:26:49;;;;;;;23.53;11.87;;;0.40;99.90;;;;;;5050926;28;20053;-69
2021/11/28 05:29:18;;;;;;;24.67;11.33;;;0.40;99.90;;;;;;5051393;28;20049;-69
2021/11/28 05:31:45;;;;;;;24.27;11.70;;;0.50;99.90;;;;;;5051049;28;20101;-69
2021/11/28 05:34:12;;;;;;;23.50;11.87;;;0.60;99.90;;;;;;5053040;28;20049;-69
2021/11/28 05:36:39;;;;;;;24.63;12.53;;;0.60;99.90;;;;;;5051045;28;20048;-69
2021/11/28 05:39:07;;;;;;;26.10;11.90;;;0.60;99.90;;;;;;5051225;28;20053;-69
2021/11/28 05:41:34;;;;;;;31.83;12.00;;;0.70;99.90;;;;;;5051195;28;20045;-69
2021/11/28 05:44:01;;;;;;;28.37;13.23;;;0.70;99.90;;;;;;5051043;28;20048;-69
2021/11/28 05:46:29;;;;;;;25.07;12.27;;;0.70;99.90;;;;;;5050095;28;20049;-69
2021/11/28 05:48:57;;;;;;;26.10;13.00;;;0.70;99.90;;;;;;5052553;28;20425;-69
2021/11/28 05:51:24;;;;;;;29.37;13.97;;;0.70;99.90;;;;;;5063153;28;20631;-70
2021/11/28 05:53:51;;;;;;;29.40;13.10;;;0.70;99.90;;;;;;5059780;28;20218;-69
2021/11/28 05:56:18;;;;;;;26.77;13.20;;;0.80;99.90;;;;;;5056076;28;20052;-69
2021/11/28 05:58:45;;;;;;;30.37;14.03;;;0.80;99.90;;;;;;5050817;28;20057;-69
2021/11/28 06:01:12;;;;;;;30.27;15.17;;;0.80;99.90;;;;;;5050432;28;20052;-69
2021/11/28 06:03:40;;;;;;;28.60;13.73;;;0.80;99.90;;;;;;5050126;28;20049;-69
2021/11/28 06:06:07;;;;;;;30.10;13.63;;;0.80;99.90;;;;;;5049348;28;20056;-69
2021/11/28 06:08:34;;;;;;;34.83;14.77;;;0.80;99.90;;;;;;5050461;28;20045;-69
2021/11/28 06:11:01;;;;;;;28.60;14.33;;;0.80;99.90;;;;;;5050533;28;20095;-69
2021/11/28 06:13:28;;;;;;;33.70;14.90;;;0.80;99.90;;;;;;5050138;28;20106;-69
2021/11/28 06:15:55;;;;;;;33.60;16.50;;;0.70;99.90;;;;;;5049345;28;20057;-69
2021/11/28 06:18:22;;;;;;;35.13;15.47;;;0.80;99.90;;;;;;5049996;28;20456;-69
2021/11/28 06:20:51;;;;;;;34.00;15.53;;;0.80;99.90;;;;;;5050030;28;20045;-69
2021/11/28 06:23:18;;;;;;;34.30;16.40;;;0.80;99.90;;;;;;5050138;28;20473;-69
2021/11/28 06:25:45;;;;;;;32.90;15.07;;;0.80;99.90;;;;;;5049183;28;20053;-69
2021/11/28 06:28:12;;;;;;;25.83;12.87;;;0.70;99.90;;;;;;5050182;28;20045;-69
2021/11/28 06:30:39;;;;;;;25.63;12.00;;;0.70;99.90;;;;;;5049574;28;20100;-69
2021/11/28 06:33:07;;;;;;;25.53;12.23;;;0.60;99.90;;;;;;5049638;28;20416;-69
2021/11/28 06:35:34;;;;;;;24.20;11.27;;;0.60;99.90;;;;;;5049186;28;20417;-69
2021/11/28 06:38:02;;;;;;;22.30;11.70;;;0.60;99.90;;;;;;5049902;28;20102;-69
2021/11/28 06:40:29;;;;;;;23.07;12.40;;;0.70;99.90;;;;;;5050124;28;20049;-69
2021/11/28 06:42:57;;;;;;;22.47;11.03;;;0.80;99.90;;;;;;5049687;28;20459;-69
2021/11/28 06:45:24;;;;;;;24.93;12.57;;;0.80;99.90;;;;;;5048795;28;20489;-69
2021/11/28 06:47:51;;;;;;;27.20;11.67;;;0.80;99.90;;;;;;5049644;28;20048;-69
2021/11/28 06:50:18;;;;;;;27.00;12.43;;;0.70;99.90;;;;;;5049744;28;20045;-69
2021/11/28 06:52:45;;;;;;;22.97;11.47;;;0.70;99.90;;;;;;5049705;28;20076;-70
2021/11/28 06:55:14;;;;;;;24.50;12.20;;;0.50;99.90;;;;;;5048663;28;20053;-69
2021/11/28 06:57:41;;;;;;;26.77;11.83;;;0.60;99.90;;;;;;5049516;28;20052;-69
2021/11/28 07:00:10;;;;;;;23.73;12.10;;;0.60;99.90;;;;;;5049575;28;20057;-69
2021/11/28 07:02:37;;;;;;;31.30;13.03;;;0.60;99.90;;;;;;5049530;28;20091;-68
2021/11/28 07:05:05;;;;;;;25.97;12.70;;;0.60;99.90;;;;;;5048550;28;20083;-69
2021/11/28 07:07:32;;;;;;;24.73;12.57;;;0.60;99.90;;;;;;5049500;28;20099;-69
2021/11/28 07:09:59;;;;;;;26.87;13.10;;;0.70;99.90;;;;;;5049544;28;20056;-69
2021/11/28 07:12:27;;;;;;;24.30;12.87;;;0.70;99.90;;;;;;5049555;28;20048;-69
2021/11/28 07:14:54;;;;;;;27.17;12.07;;;0.70;99.90;;;;;;5048657;28;20428;-69
2021/11/28 07:17:21;;;;;;;28.80;13.20;;;0.80;99.90;;;;;;5049324;28;20056;-69
2021/11/28 07:19:48;;;;;;;26.03;13.20;;;0.70;99.90;;;;;;5049427;28;20106;-69
2021/11/28 07:22:15;;;;;;;26.73;14.27;;;0.70;99.90;;;;;;5049328;28;20052;-69
2021/11/28 07:24:42;;;;;;;27.87;13.07;;;0.70;99.90;;;;;;5048508;28;20049;-69
2021/11/28 07:27:10;;;;;;;33.00;14.50;;;0.70;99.90;;;;;;5049301;28;20045;-69
2021/11/28 07:29:38;;;;;;;30.93;13.40;;;0.70;99.90;;;;;;5048838;28;20057;-69
2021/11/28 07:32:06;;;;;;;28.37;12.80;;;0.80;99.90;;;;;;5049147;28;20057;-69
2021/11/28 07:34:33;;;;;;;25.60;13.23;;;0.70;99.90;;;;;;5049041;28;20053;-69
2021/11/28 07:37:00;;;;;;;28.30;13.83;;;0.60;99.90;;;;;;5048794;28;20049;-69
2021/11/28 07:39:27;;;;;;;29.57;13.13;;;0.70;99.90;;;;;;5049160;28;20106;-70
2021/11/28 07:41:54;;;;;;;26.00;13.33;;;0.70;99.90;;;;;;5049144;28;20049;-69
2021/11/28 07:44:21;;;;;;;26.63;13.80;;;0.80;99.90;;;;;;5053338;28;20111;-69
2021/11/28 07:46:49;;;;;;;29.13;14.07;;;0.80;99.90;;;;;;5052886;28;20053;-69
2021/11/28 07:49:16;;;;;;;28.43;13.57;;;0.80;99.90;;;;;;5052902;28;20045;-69
2021/11/28 07:51:43;;;;;;;27.83;14.00;;;0.80;99.90;;;;;;5053641;28;20048;-69
2021/11/28 07:54:11;;;;;;;31.23;15.00;;;0.90;99.90;;;;;;5053388;28;20115;-69
2021/11/28 07:56:38;;;;;;;29.33;14.97;;;0.80;99.90;;;;;;5052471;28;20498;-69
2021/11/28 07:59:06;;;;;;;30.13;15.77;;;0.80;99.90;;;;;;5052825;28;20049;-69
2021/11/28 08:01:33;;;;;;;29.37;14.40;;;0.80;99.90;;;;;;5052751;28;20095;-69
2021/11/28 08:04:01;;;;;;;29.03;14.70;;;0.80;99.90;;;;;;5052881;28;20049;-69
2021/11/28 08:06:28;;;;;;;31.80;15.10;;;0.90;99.90;;;;;;5052780;28;20546;-69
2021/11/28 08:08:56;;;;;;;31.33;14.97;;;0.90;99.90;;;;;;5052731;28;20091;-69
2021/11/28 08:11:23;;;;;;;32.63;15.40;;;0.90;99.90;;;;;;5052905;28;20059;-69
2021/11/28 08:13:50;;;;;;;31.80;14.37;;;1.00;99.90;;;;;;5052324;28;20452;-69
2021/11/28 08:16:18;;;;;;;30.57;14.33;;;1.00;99.90;;;;;;5051655;28;20596;-69
2021/11/28 08:18:45;;;;;;;32.87;15.17;;;1.10;99.90;;;;;;5052474;28;20053;-70
2021/11/28 08:21:13;;;;;;;26.77;13.83;;;1.10;99.90;;;;;;5052503;28;20049;-69
2021/11/28 08:23:42;;;;;;;34.30;14.60;;;1.10;99.90;;;;;;5052359;28;20060;-69
2021/11/28 08:26:09;;;;;;;30.67;15.00;;;1.10;99.90;;;;;;5051495;28;20528;-70
2021/11/28 08:28:37;;;;;;;35.80;16.53;;;1.10;99.90;;;;;;5051787;28;20048;-69
2021/11/28 08:31:04;;;;;;;29.40;14.97;;;1.20;99.90;;;;;;5052260;28;20685;-69
2021/11/28 08:33:31;;;;;;;29.93;14.77;;;1.20;99.90;;;;;;5051980;28;20552;-69
2021/11/28 08:35:58;;;;;;;29.00;14.90;;;1.20;99.90;;;;;;5051456;28;20057;-69
2021/11/28 08:38:26;;;;;;;28.27;15.23;;;1.20;99.90;;;;;;5052324;28;20099;-69
2021/11/28 08:40:53;;;;;;;26.73;13.83;;;1.20;99.90;;;;;;5052064;28;20049;-69
2021/11/28 08:43:20;;;;;;;33.33;15.30;;;1.30;99.90;;;;;;5052498;28;20463;-69
2021/11/28 08:45:47;;;;;;;24.67;14.00;;;1.30;99.90;;;;;;5051529;28;20045;-69
2021/11/28 08:48:14;;;;;;;30.57;13.63;;;1.30;99.90;;;;;;5052133;28;20111;-69
2021/11/28 08:50:42;;;;;;;28.63;14.30;;;1.20;99.90;;;;;;5052084;28;20048;-69
2021/11/28 08:53:09;;;;;;;27.23;13.93;;;1.40;99.90;;;;;;5052418;28;20094;-69
2021/11/28 08:55:38;;;;;;;29.20;14.17;;;1.50;99.90;;;;;;5050197;28;20405;-70
2021/11/28 08:58:05;;;;;;;27.23;14.40;;;1.60;99.90;;;;;;5051955;28;20051;-69
2021/11/28 09:00:32;;;;;;;26.50;13.90;;;1.70;99.90;;;;;;5052266;28;20547;-69
2021/11/28 09:02:59;;;;;;;27.73;14.43;;;1.70;99.90;;;;;;5052122;28;20049;-69
2021/11/28 09:05:26;;;;;;;26.23;13.50;;;1.80;99.90;;;;;;5051103;28;20063;-69
2021/11/28 09:07:54;;;;;;;25.17;13.50;;;1.70;99.90;;;;;;5121907;22;20054;-69
2021/11/28 09:10:21;;;;;;;29.37;13.77;;;1.90;99.90;;;;;;5015009;28;20108;-69
2021/11/28 09:12:50;;;;;;;27.83;14.20;;;2.20;99.90;;;;;;5015253;28;20117;-69
2021/11/28 09:15:18;;;;;;;23.80;12.30;;;2.50;99.90;;;;;;5032010;28;20053;-69
2021/11/28 09:17:50;;;;;;;24.80;12.63;;;2.20;99.90;;;;;;5034749;28;20045;-69
2021/11/28 09:20:20;;;;;;;23.83;12.17;;;2.40;99.90;;;;;;5035134;28;20590;-71
2021/11/28 09:25:33;;;;;;;22.23;11.90;;;2.70;99.90;;;;;;5033807;28;20083;-69
2021/11/28 09:28:02;;;;;;;24.60;13.60;;;2.80;99.90;;;;;;5034631;28;20081;-68
2021/11/28 09:30:30;;;;;;;24.73;12.80;;;2.90;99.90;;;;;;5034931;28;20053;-69
2021/11/28 09:32:59;;;;;;;22.53;11.90;;;3.00;99.90;;;;;;5034934;28;20046;-76
2021/11/28 09:35:27;;;;;;;22.33;12.63;;;2.80;99.90;;;;;;5033395;28;20060;-70
2021/11/28 09:37:55;;;;;;;21.57;13.13;;;2.70;99.90;;;;;;5034718;28;20107;-72
2021/11/28 09:40:24;;;;;;;25.47;13.07;;;2.50;99.90;;;;;;5035075;28;20049;-72
2021/11/28 09:42:54;;;;;;;24.57;13.13;;;2.30;99.90;;;;;;5035095;28;20046;-69
2021/11/28 09:45:24;;;;;;;24.33;12.67;;;2.40;99.90;;;;;;5033210;28;20053;-69
2021/11/28 09:47:52;;;;;;;21.33;12.50;;;2.50;99.90;;;;;;5034058;28;20055;-72
2021/11/28 09:50:20;;;;;;;19.70;11.97;;;2.50;99.90;;;;;;5033962;28;20136;-70
2021/11/28 09:52:50;;;;;;;21.00;12.67;;;2.70;99.90;;;;;;5034778;28;20123;-72
2021/11/28 09:55:18;;;;;;;23.17;13.20;;;2.60;99.90;;;;;;5033197;28;20045;-70
2021/11/28 09:57:45;;;;;;;20.70;11.30;;;2.50;99.90;;;;;;5034848;28;20053;-69
2021/11/28 10:00:15;;;;;;;23.33;13.73;;;2.60;99.90;;;;;;5034321;28;20080;-69
2021/11/28 10:02:44;;;;;;;22.07;12.03;;;2.60;99.90;;;;;;5034033;28;20060;-72
2021/11/28 10:05:13;;;;;;;25.03;12.40;;;2.50;99.90;;;;;;5032699;28;20100;-69
2021/11/28 10:07:42;;;;;;;24.43;12.67;;;2.20;99.90;;;;;;5033702;28;20076;-70
2021/11/28 10:10:10;;;;;;;26.00;13.03;;;2.40;99.90;;;;;;5033953;28;20136;-69
2021/11/28 10:12:42;;;;;;;24.83;11.63;;;2.70;99.90;;;;;;5034054;28;20053;-68
2021/11/28 10:15:12;;;;;;;21.80;10.50;;;2.60;99.90;;;;;;5032798;28;20484;-72
2021/11/28 10:17:40;;;;;;;19.83;11.03;;;2.50;99.90;;;;;;5035007;28;20055;-73
2021/11/28 10:20:11;;;;;;;20.30;11.40;;;2.20;99.90;;;;;;5033976;28;20107;-70
2021/11/28 10:22:39;;;;;;;25.70;12.17;;;2.20;99.90;;;;;;5033653;28;20096;-70
2021/11/28 10:25:15;;;;;;;23.90;11.97;;;2.20;99.90;;;;;;5033452;28;20359;-70
2021/11/28 10:27:43;;;;;;;23.67;12.35;;;2.10;99.90;;;;;;5033931;28;20144;-70
2021/11/28 10:30:14;;;;;;;23.03;11.87;;;2.20;99.90;;;;;;5034169;28;20460;-69
2021/11/28 10:32:49;;;;;;;24.53;12.57;;;2.00;99.90;;;;;;5035274;28;20129;-71
2021/11/28 10:35:18;;;;;;;23.90;12.70;;;2.00;99.90;;;;;;5030678;28;20119;-70
2021/11/28 10:37:47;;;;;;;22.67;12.97;;;1.80;99.90;;;;;;5033455;28;20049;-71
2021/11/28 10:40:20;;;;;;;25.17;13.47;;;1.90;99.90;;;;;;5033160;28;20060;-74
2021/11/28 10:42:48;;;;;;;22.97;12.40;;;2.00;99.90;;;;;;5034753;28;20456;-71
2021/11/28 10:45:18;;;;;;;25.37;13.87;;;1.90;99.90;;;;;;5035150;28;20064;-71
2021/11/28 10:47:46;;;;;;;26.40;13.33;;;2.10;99.90;;;;;;5035857;28;20045;-72
2021/11/28 10:50:19;;;;;;;26.47;13.40;;;2.00;99.90;;;;;;5036390;28;20049;-74
2021/11/28 10:52:49;;;;;;;26.47;13.70;;;1.90;99.90;;;;;;5035329;28;20053;-74
2021/11/28 10:55:19;;;;;;;27.70;13.90;;;1.90;99.90;;;;;;5033524;28;20046;-73
2021/11/28 10:57:46;;;;;;;26.60;13.97;;;1.80;99.90;;;;;;5034419;28;20045;-71
2021/11/28 11:00:15;;;;;;;31.27;14.43;;;1.80;99.90;;;;;;5034384;28;20104;-71
2021/11/28 11:02:42;;;;;;;25.83;13.70;;;1.80;99.90;;;;;;5034585;28;20052;-72
2021/11/28 11:05:13;;;;;;;29.00;13.33;;;2.00;99.90;;;;;;5034043;28;20049;-71
2021/11/28 11:07:48;;;;;;;24.47;14.10;;;2.00;99.90;;;;;;5034015;28;20049;-74
2021/11/28 11:10:25;;;;;;;25.93;12.87;;;2.00;99.90;;;;;;5034383;28;20153;-70
2021/11/28 11:12:52;;;;;;;;;;;2.10;99.90;;;;;;5034578;28;20057;-73
2021/11/28 11:15:33;;;;;;;;;;;2.00;99.90;;;;;;5034663;28;19928;-71
2021/11/28 11:18:02;;;;;;;26.87;13.00;;;2.00;99.90;;;;;;5033968;28;20052;-70
2021/11/28 11:20:31;;;;;;;25.47;14.00;;;2.10;99.90;;;;;;5035189;28;20057;-73
2021/11/28 11:22:59;;;;;;;26.03;13.47;;;2.30;99.90;;;;;;5034979;28;20289;-72
2021/11/28 11:25:36;;;;;;;26.70;13.57;;;2.20;99.90;;;;;;5034206;28;20057;-70
2021/11/28 11:28:11;;;;;;;26.40;14.75;;;2.40;99.90;;;;;;5034666;28;20081;-71
2021/11/28 11:30:38;;;;;;;25.27;13.83;;;2.60;99.90;;;;;;5033858;28;20567;-71
2021/11/28 11:33:07;;;;;;;25.57;13.80;;;2.50;99.90;;;;;;5034815;28;20100;-71
2021/11/28 11:35:40;;;;;;;25.10;12.83;;;2.50;99.90;;;;;;5033736;28;20053;-68
2021/11/28 11:38:11;;;;;;;21.60;12.20;;;2.60;99.90;;;;;;5032955;28;20136;-70
2021/11/28 11:40:38;;;;;;;22.63;12.50;;;2.70;99.90;;;;;;5020421;28;20049;-72
2021/11/28 11:43:06;;;;;;;23.30;12.63;;;2.50;99.90;;;;;;5025884;28;20045;-73
2021/11/28 11:45:36;;;;;;;22.20;12.60;;;2.70;99.90;;;;;;5035864;28;20559;-71
2021/11/28 11:48:04;;;;;;;22.27;12.20;;;2.70;99.90;;;;;;5032163;28;20110;-71
2021/11/28 11:50:35;;;;;;;19.37;11.30;;;2.70;99.90;;;;;;5030692;28;20060;-72
2021/11/28 11:53:03;;;;;;;23.17;11.83;;;2.60;99.90;;;;;;5012080;28;20432;-71
2021/11/28 11:55:38;;;;;;;20.90;11.43;;;2.60;99.90;;;;;;5011539;28;20135;-72
2021/11/28 11:58:31;;;;;;;19.33;11.13;;;2.60;99.90;;;;;;5012582;28;20057;-72
2021/11/28 12:01:03;;;;;;;20.80;11.20;;;2.80;99.90;;;;;;5017323;28;20120;-74
2021/11/28 12:03:46;;;;;;;20.77;11.30;;;2.70;99.90;;;;;;5015526;28;20053;-74
2021/11/28 12:06:13;;;;;;;17.97;10.97;;;2.70;99.90;;;;;;5013720;28;20145;-72
2021/11/28 12:08:50;;;;;;;19.53;10.73;;;3.00;99.90;;;;;;5012881;28;20061;-71
2021/11/28 12:11:22;;;;;;;21.27;11.10;;;3.00;99.90;;;;;;5013765;28;20141;-70
2021/11/28 12:13:58;;;;;;;21.60;11.87;;;2.90;99.90;;;;;;5013005;28;20143;-71
2021/11/28 12:16:32;;;;;;;19.30;11.18;;;2.90;99.90;;;;;;5012822;28;20108;-72
2021/11/28 12:18:59;;;;;;;24.17;11.80;;;2.80;99.90;;;;;;5014423;28;20049;-72
2021/11/28 12:21:44;;;;;;;19.90;11.17;;;2.90;99.90;;;;;;5015281;28;20077;-71
2021/11/28 12:24:20;;;;;;;21.33;12.10;;;2.90;99.90;;;;;;5013757;28;20057;-71
2021/11/28 12:26:50;;;;;;;21.98;12.82;;;2.90;99.90;;;;;;5012739;28;20050;-71
2021/11/28 12:29:36;;;;;;;23.77;12.97;;;3.00;99.90;;;;;;5015107;28;20132;-71
2021/11/28 12:32:36;;;;;;;22.00;11.10;;;3.00;99.90;;;;;;5016916;28;20421;-71
2021/11/28 12:35:07;;;;;;;23.80;11.60;;;3.00;99.90;;;;;;5016421;28;20065;-70
2021/11/28 12:37:39;;;;;;;24.43;12.20;;;2.90;99.90;;;;;;5017608;28;20132;-72
2021/11/28 12:40:22;;;;;;;20.77;12.03;;;3.00;99.90;;;;;;5018738;28;20084;-71
2021/11/28 12:42:50;;;;;;;19.60;11.03;;;3.00;99.90;;;;;;5016611;28;20057;-71
2021/11/28 12:45:29;;;;;;;17.30;10.77;;;2.80;99.90;;;;;;5016957;28;20054;-72
2021/11/28 12:48:09;;;;;;;22.00;11.60;;;2.80;99.90;;;;;;5016681;28;20118;-73